Time;durP1;ratioP1;P1;durP2;ratioP2;P2;SDS_P1;SDS_P2;PMS_P1;PMS_P2;Temp;Humidity;BMP_temperature;BMP_pressure;BME280_temperature;BME280_humidity;BME280_pressure;Samples;Min_cycle;Max_cycle;Signal;HPM_P1;HPM_P2
2023/11/20 00:03:12;;;;;;;9.10;8.40;;;10.50;99.90;;;;;;15248286;23;20038;-80
2023/11/20 00:09:14;;;;;;;8.98;8.13;;;10.50;99.90;;;;;;15242791;23;20030;-79
2023/11/20 00:15:16;;;;;;;8.07;7.45;;;10.60;99.90;;;;;;15250103;23;20032;-81
2023/11/20 00:21:20;;;;;;;8.18;7.50;;;10.70;99.90;;;;;;15244003;23;20449;-80
2023/11/20 00:27:22;;;;;;;8.30;7.47;;;10.70;99.90;;;;;;15248718;23;20037;-81
2023/11/20 00:33:24;;;;;;;8.73;8.13;;;10.70;99.90;;;;;;15249336;23;20129;-81
2023/11/20 00:39:26;;;;;;;7.95;7.35;;;10.80;99.90;;;;;;15253911;23;20459;-81
2023/11/20 00:45:30;;;;;;;7.32;6.60;;;10.80;99.90;;;;;;15248974;23;20029;-81
2023/11/20 00:51:33;;;;;;;7.25;6.65;;;10.80;99.90;;;;;;15250684;23;20030;-82
2023/11/20 00:57:36;;;;;;;8.32;7.72;;;10.70;99.90;;;;;;15249022;23;20022;-81
2023/11/20 01:03:41;;;;;;;7.10;6.60;;;10.80;99.90;;;;;;15246705;23;20479;-80
2023/11/20 01:09:43;;;;;;;7.57;6.97;;;10.80;99.90;;;;;;15250345;23;20026;-81
2023/11/20 01:15:45;;;;;;;6.07;5.50;;;10.80;99.90;;;;;;15248806;23;20112;-82
2023/11/20 01:21:47;;;;;;;6.80;6.22;;;10.80;99.90;;;;;;15246034;23;20075;-83
2023/11/20 01:27:49;;;;;;;6.68;6.22;;;10.90;99.90;;;;;;15244841;23;20097;-81
2023/11/20 01:33:51;;;;;;;6.75;6.25;;;10.90;99.90;;;;;;15251436;23;20021;-81
2023/11/20 01:39:54;;;;;;;6.18;5.57;;;10.80;99.90;;;;;;15251118;23;20022;-80
2023/11/20 01:46:05;;;;;;;6.68;6.18;;;10.80;99.90;;;;;;15245715;23;20225;-80
2023/11/20 01:52:09;;;;;;;8.88;7.90;;;10.90;99.90;;;;;;15250385;23;20104;-82
2023/11/20 01:58:11;;;;;;;6.57;6.18;;;10.80;99.90;;;;;;15248385;23;20209;-81
2023/11/20 02:04:14;;;;;;;6.05;5.60;;;10.70;99.90;;;;;;15250523;23;20183;-81
2023/11/20 02:10:17;;;;;;;6.28;5.82;;;10.70;99.90;;;;;;15250610;23;20055;-80
2023/11/20 02:16:19;;;;;;;7.03;6.43;;;10.70;99.90;;;;;;15253951;23;20017;-81
2023/11/20 02:22:21;;;;;;;6.72;6.22;;;10.70;99.90;;;;;;15250934;23;20240;-84
2023/11/20 02:28:32;;;;;;;6.50;6.00;;;10.70;99.90;;;;;;15250420;23;20029;-85
2023/11/20 02:34:36;;;;;;;7.85;7.18;;;10.70;99.90;;;;;;15247226;23;20025;-81
2023/11/20 02:40:38;;;;;;;7.30;6.72;;;10.70;99.90;;;;;;15250802;23;20033;-82
2023/11/20 02:46:40;;;;;;;7.93;7.32;;;10.70;99.90;;;;;;15243234;23;20044;-80
2023/11/20 02:52:42;;;;;;;7.28;6.80;;;10.80;99.90;;;;;;15246663;23;20028;-81
2023/11/20 02:58:44;;;;;;;6.25;5.65;;;10.80;99.90;;;;;;15254668;23;20102;-83
2023/11/20 03:04:46;;;;;;;5.95;5.50;;;10.80;99.90;;;;;;15252052;23;20040;-83
2023/11/20 03:10:52;;;;;;;5.60;5.10;;;10.90;99.90;;;;;;15251416;23;20392;-87
2023/11/20 03:16:54;;;;;;;7.50;7.00;;;10.90;99.90;;;;;;15251069;23;20022;-82
2023/11/20 03:22:56;;;;;;;7.65;7.13;;;10.90;99.90;;;;;;15252855;23;20029;-79
2023/11/20 03:28:58;;;;;;;7.00;6.45;;;10.70;99.90;;;;;;15252884;23;20025;-80
2023/11/20 03:35:00;;;;;;;6.43;5.95;;;10.80;99.90;;;;;;15252620;23;20025;-81
2023/11/20 03:41:02;;;;;;;6.32;5.82;;;10.70;99.90;;;;;;15246697;23;20021;-80
2023/11/20 03:47:04;;;;;;;6.30;5.90;;;10.70;99.90;;;;;;15251742;23;20044;-80
2023/11/20 03:53:06;;;;;;;5.68;5.28;;;10.70;99.90;;;;;;15246806;23;20401;-79
2023/11/20 03:59:08;;;;;;;6.13;5.53;;;10.70;99.90;;;;;;15245925;23;20028;-81
2023/11/20 04:05:10;;;;;;;5.85;5.38;;;10.70;99.90;;;;;;15250354;23;20029;-79
2023/11/20 04:11:13;;;;;;;5.30;4.88;;;10.80;99.90;;;;;;15247129;23;20108;-81
2023/11/20 04:17:15;;;;;;;5.35;4.85;;;10.70;99.90;;;;;;15248432;23;20033;-80
2023/11/20 04:23:18;;;;;;;4.97;4.57;;;10.80;99.90;;;;;;15244172;23;20140;-80
2023/11/20 04:29:20;;;;;;;5.00;4.55;;;10.80;99.90;;;;;;15242968;23;20021;-79
2023/11/20 04:35:22;;;;;;;5.55;4.95;;;10.80;99.90;;;;;;15247506;23;20541;-80
2023/11/20 04:41:23;;;;;;;5.95;5.30;;;10.70;99.90;;;;;;15249583;23;20032;-81
2023/11/20 04:47:25;;;;;;;6.10;5.60;;;10.70;99.90;;;;;;15244000;23;20033;-79
2023/11/20 04:53:27;;;;;;;6.63;6.13;;;10.60;99.90;;;;;;15248809;23;20462;-81
2023/11/20 04:59:29;;;;;;;7.80;6.78;;;10.70;99.90;;;;;;15252655;23;20032;-84
2023/11/20 05:05:32;;;;;;;7.20;6.55;;;10.60;99.90;;;;;;15250836;23;20032;-80
2023/11/20 05:11:38;;;;;;;7.78;7.07;;;10.60;99.90;;;;;;15249250;23;20036;-79
2023/11/20 05:17:40;;;;;;;7.30;6.47;;;10.60;99.90;;;;;;15253224;23;20451;-78
2023/11/20 05:23:42;;;;;;;5.63;5.13;;;10.70;99.90;;;;;;15245468;23;20029;-79
2023/11/20 05:29:46;;;;;;;5.72;4.95;;;10.60;99.90;;;;;;15250351;23;20036;-80
2023/11/20 05:35:48;;;;;;;7.50;5.35;;;10.70;99.90;;;;;;15243921;23;20451;-83
2023/11/20 05:41:52;;;;;;;7.25;5.72;;;10.60;99.90;;;;;;15221019;23;20080;-79
2023/11/20 05:47:54;;;;;;;6.20;5.60;;;10.60;99.90;;;;;;15248891;23;20061;-83
2023/11/20 05:53:57;;;;;;;10.38;7.50;;;10.60;99.90;;;;;;15221413;23;20018;-80
2023/11/20 06:00:06;;;;;;;7.78;7.07;;;10.60;99.90;;;;;;15221805;23;20021;-80
2023/11/20 06:06:09;;;;;;;8.00;7.20;;;10.60;99.90;;;;;;15243625;23;20546;-80
2023/11/20 06:12:11;;;;;;;9.10;7.30;;;10.50;99.90;;;;;;15248804;23;20029;-83
2023/11/20 06:18:13;;;;;;;8.40;7.50;;;10.50;99.90;;;;;;15255013;23;20086;-80
2023/11/20 06:24:17;;;;;;;8.57;7.78;;;10.50;99.90;;;;;;15253571;23;20166;-80
2023/11/20 06:30:19;;;;;;;8.18;7.47;;;10.50;99.90;;;;;;15253797;23;20026;-81
2023/11/20 06:36:21;;;;;;;8.55;7.75;;;10.50;99.90;;;;;;15253393;23;20022;-82
2023/11/20 06:42:23;;;;;;;8.60;7.97;;;10.40;99.90;;;;;;15254691;23;20017;-81
2023/11/20 06:48:26;;;;;;;9.65;8.82;;;10.40;99.90;;;;;;15250216;23;20029;-80
2023/11/20 06:54:29;;;;;;;9.10;8.40;;;10.40;99.90;;;;;;15252379;23;20018;-80
2023/11/20 07:00:31;;;;;;;9.10;8.30;;;10.40;99.90;;;;;;15251976;23;20458;-85
2023/11/20 07:06:33;;;;;;;9.55;7.95;;;10.40;99.90;;;;;;15248343;23;20029;-82
2023/11/20 07:12:35;;;;;;;10.02;9.07;;;10.40;99.90;;;;;;15250036;23;20079;-80
2023/11/20 07:18:37;;;;;;;8.68;7.75;;;10.40;99.90;;;;;;15253418;23;20021;-82
2023/11/20 07:24:42;;;;;;;11.30;8.23;;;10.40;99.90;;;;;;15245154;23;20025;-81
2023/11/20 07:30:44;;;;;;;13.77;8.18;;;10.30;99.90;;;;;;15250601;23;20025;-82
2023/11/20 07:36:46;;;;;;;9.20;8.30;;;10.40;99.90;;;;;;15252742;23;20025;-83
2023/11/20 07:42:48;;;;;;;8.32;7.43;;;10.40;99.90;;;;;;15251647;23;20581;-82
2023/11/20 07:48:52;;;;;;;8.15;7.45;;;10.40;99.90;;;;;;15251777;23;20107;-81
2023/11/20 07:54:54;;;;;;;10.90;8.27;;;10.30;99.90;;;;;;15255611;23;20022;-81
2023/11/20 08:00:56;;;;;;;8.27;7.20;;;10.20;99.90;;;;;;15252505;23;20022;-82
2023/11/20 08:06:58;;;;;;;10.10;7.82;;;10.30;99.90;;;;;;15257045;22;20084;-81
2023/11/20 08:13:04;;;;;;;;;;;10.30;99.90;;;;;;15259530;22;20017;-82
2023/11/20 08:19:06;;;;;;;11.00;7.53;;;10.30;99.90;;;;;;15255113;22;19947;-86
2023/11/20 08:25:08;;;;;;;10.68;7.30;;;10.20;99.90;;;;;;15256558;23;20097;-80
2023/11/20 08:31:11;;;;;;;12.52;7.75;;;10.20;99.90;;;;;;15256872;23;20021;-81
2023/11/20 08:37:13;;;;;;;12.25;7.22;;;10.10;99.90;;;;;;15253574;23;20017;-83
2023/11/20 08:43:15;;;;;;;14.15;6.28;;;10.20;99.90;;;;;;15252047;23;20021;-81
2023/11/20 08:49:18;;;;;;;10.35;6.47;;;10.10;99.90;;;;;;15252850;23;20029;-83
2023/11/20 08:55:20;;;;;;;9.68;5.80;;;10.10;99.90;;;;;;15256314;23;20328;-81
2023/11/20 09:01:30;;;;;;;11.73;5.30;;;10.20;99.90;;;;;;15255253;23;20018;-81
2023/11/20 09:07:32;;;;;;;10.57;4.30;;;10.20;99.90;;;;;;15258854;23;20029;-81
2023/11/20 09:13:34;;;;;;;11.68;4.68;;;10.20;99.90;;;;;;15263498;23;20032;-81
2023/11/20 09:19:37;;;;;;;9.40;4.22;;;10.30;99.90;;;;;;15315032;23;20076;-83
2023/11/20 09:25:39;;;;;;;9.45;4.07;;;10.30;99.90;;;;;;15312052;23;20032;-82
2023/11/20 09:31:42;;;;;;;9.10;4.45;;;10.30;99.90;;;;;;15291933;22;20036;-82
2023/11/20 09:37:45;;;;;;;10.03;4.80;;;10.40;99.90;;;;;;15284457;22;20021;-81
2023/11/20 09:43:51;;;;;;;9.02;5.13;;;10.30;99.90;;;;;;15270335;23;20021;-82
2023/11/20 09:49:55;;;;;;;13.13;5.65;;;10.20;99.90;;;;;;15259143;23;20032;-81
2023/11/20 09:55:57;;;;;;;11.85;5.88;;;10.20;99.90;;;;;;15260847;23;20022;-81
2023/11/20 10:02:00;;;;;;;10.38;5.57;;;10.10;99.90;;;;;;15260662;23;20029;-81
2023/11/20 10:08:02;;;;;;;13.20;4.78;;;10.10;99.90;;;;;;15260498;23;20029;-82
2023/11/20 10:14:05;;;;;;;7.68;4.35;;;10.20;99.90;;;;;;15254262;22;20018;-84
2023/11/20 10:20:09;;;;;;;15.52;4.97;;;10.20;99.90;;;;;;15243382;23;20033;-82
2023/11/20 10:26:11;;;;;;;;;;;10.30;99.90;;;;;;15255089;23;20021;-80
2023/11/20 10:32:13;;;;;;;9.77;3.90;;;10.30;99.90;;;;;;15247301;23;20475;-79
2023/11/20 10:38:15;;;;;;;10.57;5.13;;;10.50;99.90;;;;;;15253140;23;20025;-83
2023/11/20 10:44:19;;;;;;;8.23;3.45;;;10.50;99.90;;;;;;15245360;23;20029;-79
2023/11/20 10:50:22;;;;;;;9.30;4.18;;;10.40;99.90;;;;;;15246383;23;20032;-82
2023/11/20 10:56:28;;;;;;;13.00;4.03;;;10.40;99.90;;;;;;15248859;23;20351;-79
2023/11/20 11:02:31;;;;;;;9.77;4.75;;;10.40;99.90;;;;;;15255902;23;20030;-80
2023/11/20 11:08:36;;;;;;;8.68;5.20;;;10.30;99.90;;;;;;15253129;23;20025;-81
2023/11/20 11:14:38;;;;;;;8.95;4.90;;;10.30;99.90;;;;;;15257571;23;20184;-80
2023/11/20 11:20:47;;;;;;;8.20;4.10;;;10.40;99.90;;;;;;15252346;23;20410;-81
2023/11/20 11:27:03;;;;;;;8.20;4.13;;;10.50;99.90;;;;;;15244753;23;20542;-79
2023/11/20 11:33:41;;;;;;;9.75;3.67;;;10.60;99.90;;;;;;15254268;23;20355;-80
2023/11/20 11:39:57;;;;;;;13.60;4.32;;;10.80;99.90;;;;;;15252997;23;20021;-80
2023/11/20 11:46:03;;;;;;;9.75;3.65;;;10.70;99.90;;;;;;15257609;23;20025;-80
2023/11/20 11:52:08;;;;;;;8.60;3.33;;;11.00;99.90;;;;;;15251678;22;20018;-81
2023/11/20 11:58:15;;;;;;;10.70;3.33;;;11.10;99.90;;;;;;15248281;23;20082;-80
2023/11/20 12:04:48;;;;;;;10.40;3.00;;;11.00;99.90;;;;;;15253320;23;20021;-81
2023/11/20 12:10:52;;;;;;;10.73;3.17;;;10.90;99.90;;;;;;15253034;23;20032;-81
2023/11/20 12:17:01;;;;;;;12.27;3.53;;;10.80;99.90;;;;;;15253051;23;20474;-81
2023/11/20 12:23:07;;;;;;;9.15;2.65;;;10.80;99.90;;;;;;15244889;23;20460;-81
2023/11/20 12:29:10;;;;;;;11.10;2.75;;;10.90;99.90;;;;;;15256328;23;20457;-81
2023/11/20 12:35:12;;;;;;;8.10;2.42;;;11.00;99.90;;;;;;15253827;23;20370;-81
2023/11/20 12:41:15;;;;;;;10.25;2.97;;;10.90;99.90;;;;;;15253063;23;20031;-82
2023/11/20 12:47:18;;;;;;;11.57;2.57;;;10.80;99.90;;;;;;15241272;23;20022;-81
2023/11/20 12:53:22;;;;;;;6.20;2.10;;;10.80;99.90;;;;;;15254218;23;20030;-80
2023/11/20 12:59:24;;;;;;;7.20;2.73;;;10.80;99.90;;;;;;15252492;23;20490;-80
2023/11/20 13:05:27;;;;;;;6.80;2.03;;;11.00;99.90;;;;;;15254590;23;20030;-80
2023/11/20 13:11:33;;;;;;;12.07;2.47;;;11.20;99.90;;;;;;15252940;23;20249;-80
2023/11/20 13:17:39;;;;;;;6.47;2.20;;;11.30;99.90;;;;;;15233969;23;20237;-81
2023/11/20 13:23:42;;;;;;;6.75;1.73;;;11.20;99.90;;;;;;15243906;23;20029;-80
2023/11/20 13:30:09;;;;;;;6.95;2.40;;;11.20;99.90;;;;;;15249819;23;20033;-79
2023/11/20 13:36:11;;;;;;;9.25;2.60;;;11.20;99.90;;;;;;15250422;23;20467;-80
2023/11/20 13:42:13;;;;;;;9.40;2.42;;;11.10;99.90;;;;;;15249907;23;20049;-81
2023/11/20 13:48:15;;;;;;;9.50;1.73;;;10.90;99.90;;;;;;15253190;23;20029;-80
2023/11/20 13:54:17;;;;;;;4.93;1.65;;;11.10;99.90;;;;;;15261000;23;20026;-80
2023/11/20 14:00:21;;;;;;;9.35;2.40;;;11.10;99.90;;;;;;15255183;23;20030;-79
2023/11/20 14:06:23;;;;;;;5.85;1.65;;;11.00;99.90;;;;;;15247825;23;20026;-80
2023/11/20 14:12:27;;;;;;;8.80;2.15;;;10.90;99.90;;;;;;15242449;23;20029;-81
2023/11/20 14:18:30;;;;;;;8.40;1.98;;;10.80;99.90;;;;;;15253620;23;20381;-80
2023/11/20 14:24:32;;;;;;;8.27;2.58;;;10.80;99.90;;;;;;15253410;22;20021;-81
2023/11/20 14:30:34;;;;;;;7.55;1.92;;;10.80;99.90;;;;;;15246555;23;20029;-80
2023/11/20 14:36:37;;;;;;;5.57;1.80;;;10.60;99.90;;;;;;15257820;23;20029;-80
2023/11/20 14:42:45;;;;;;;8.15;2.00;;;10.50;99.90;;;;;;15256863;23;20021;-80
2023/11/20 14:48:47;;;;;;;4.78;1.90;;;10.60;99.90;;;;;;15256184;23;20029;-80
2023/11/20 14:54:49;;;;;;;7.82;2.30;;;10.50;99.90;;;;;;15259830;23;20060;-80
2023/11/20 15:00:52;;;;;;;8.35;1.88;;;10.40;99.90;;;;;;15250192;23;20032;-80
2023/11/20 15:06:53;;;;;;;6.95;2.40;;;10.40;99.90;;;;;;15254143;23;20071;-81
2023/11/20 15:12:59;;;;;;;6.75;2.38;;;10.30;99.90;;;;;;15244438;23;20100;-81
2023/11/20 15:19:01;;;;;;;7.07;2.45;;;10.20;99.90;;;;;;15253910;23;20034;-81
2023/11/20 15:25:08;;;;;;;8.05;2.20;;;9.90;99.90;;;;;;15259994;23;20029;-81
2023/11/20 15:31:10;;;;;;;9.93;2.53;;;9.50;99.90;;;;;;15228235;23;20159;-81
2023/11/20 15:37:14;;;;;;;9.60;2.50;;;9.30;99.90;;;;;;15249540;23;20025;-81
2023/11/20 15:43:16;;;;;;;8.00;2.83;;;9.10;99.90;;;;;;15245279;23;20561;-81
2023/11/20 15:49:18;;;;;;;6.53;2.17;;;9.00;99.90;;;;;;15237996;23;20033;-82
2023/11/20 15:55:21;;;;;;;4.97;2.25;;;9.00;99.90;;;;;;15247019;23;20018;-82
2023/11/20 16:01:23;;;;;;;9.45;2.50;;;9.00;99.90;;;;;;15250863;23;20021;-81
2023/11/20 16:07:34;;;;;;;7.40;2.40;;;8.90;99.90;;;;;;15250930;23;20455;-82
2023/11/20 16:13:36;;;;;;;6.43;2.45;;;8.80;99.90;;;;;;15246527;23;20029;-80
2023/11/20 16:19:38;;;;;;;10.38;3.20;;;8.80;99.90;;;;;;15243572;23;20017;-79
2023/11/20 16:25:40;;;;;;;10.88;2.90;;;8.80;99.90;;;;;;15251940;23;20366;-80
2023/11/20 16:31:54;;;;;;;6.70;2.40;;;8.70;99.90;;;;;;15250341;23;20026;-80
2023/11/20 16:37:57;;;;;;;5.53;2.30;;;8.70;99.90;;;;;;15250115;23;20017;-81
2023/11/20 16:44:01;;;;;;;8.77;2.38;;;8.60;99.90;;;;;;15242981;23;20021;-80
2023/11/20 16:50:04;;;;;;;7.93;2.25;;;8.60;99.90;;;;;;15244201;23;20032;-81
2023/11/20 16:56:07;;;;;;;11.55;3.10;;;8.50;99.90;;;;;;15247989;23;20017;-81
2023/11/20 17:02:09;;;;;;;4.97;2.35;;;8.40;99.90;;;;;;15243743;23;20036;-82
2023/11/20 17:08:11;;;;;;;11.45;3.50;;;8.40;99.90;;;;;;15247276;23;20025;-81
2023/11/20 17:14:13;;;;;;;11.85;2.97;;;8.30;99.90;;;;;;15253648;23;20037;-81
2023/11/20 17:20:15;;;;;;;8.00;2.60;;;8.30;99.90;;;;;;15251160;23;20095;-81
2023/11/20 17:26:18;;;;;;;8.45;2.97;;;8.40;99.90;;;;;;15251184;23;20029;-81
2023/11/20 17:32:20;;;;;;;8.65;3.03;;;8.40;99.90;;;;;;15254764;23;20037;-82
2023/11/20 17:38:24;;;;;;;10.75;3.45;;;8.30;99.90;;;;;;15253677;23;20074;-82
2023/11/20 17:44:27;;;;;;;12.13;4.37;;;8.30;99.90;;;;;;15250396;23;20032;-81
2023/11/20 17:50:29;;;;;;;8.88;3.65;;;8.30;99.90;;;;;;15258148;23;20068;-82
2023/11/20 17:56:31;;;;;;;11.70;3.92;;;8.40;99.90;;;;;;15258898;23;20025;-81
2023/11/20 18:02:33;;;;;;;11.45;3.40;;;8.40;99.90;;;;;;15259209;23;20029;-82
2023/11/20 18:08:36;;;;;;;8.73;2.97;;;8.50;99.90;;;;;;15259412;22;20030;-81
2023/11/20 18:14:38;;;;;;;9.40;3.28;;;8.50;99.90;;;;;;15254035;23;20021;-82
2023/11/20 18:20:39;;;;;;;9.57;3.88;;;8.50;99.90;;;;;;15257024;23;20026;-81
2023/11/20 18:26:42;;;;;;;7.55;3.90;;;8.50;99.90;;;;;;15252428;23;20029;-81
2023/11/20 18:32:44;;;;;;;9.00;3.88;;;8.40;99.90;;;;;;15253489;23;20026;-81
2023/11/20 18:38:46;;;;;;;10.52;4.57;;;8.40;99.90;;;;;;15251445;23;20021;-83
2023/11/20 18:44:50;;;;;;;12.85;3.90;;;8.30;99.90;;;;;;15254728;23;20022;-80
2023/11/20 18:50:53;;;;;;;8.20;3.53;;;8.30;99.90;;;;;;15253453;23;20065;-81
2023/11/20 18:56:55;;;;;;;8.55;3.97;;;8.20;99.90;;;;;;15251062;23;20021;-80
2023/11/20 19:02:58;;;;;;;9.55;3.63;;;8.10;99.90;;;;;;15258518;23;20025;-80
2023/11/20 19:09:04;;;;;;;6.67;3.63;;;8.10;99.90;;;;;;15261265;22;20096;-81
2023/11/20 19:15:09;;;;;;;7.22;3.60;;;8.10;99.90;;;;;;15259749;23;20032;-82
2023/11/20 19:21:11;;;;;;;7.67;3.57;;;8.00;99.90;;;;;;15258155;23;20026;-80
2023/11/20 19:27:16;;;;;;;12.95;3.72;;;8.00;99.90;;;;;;15256692;23;20589;-81
2023/11/20 19:33:18;;;;;;;7.72;4.07;;;8.00;99.90;;;;;;15259186;23;20561;-81
2023/11/20 19:39:21;;;;;;;10.85;4.50;;;7.90;99.90;;;;;;15258911;23;20021;-81
2023/11/20 19:45:24;;;;;;;11.50;5.75;;;8.00;99.90;;;;;;15262303;23;20022;-81
2023/11/20 19:51:29;;;;;;;12.10;5.68;;;7.90;99.90;;;;;;15265558;23;20447;-80
2023/11/20 19:57:31;;;;;;;;;;;7.80;99.90;;;;;;15279381;23;20017;-82
2023/11/20 20:03:33;;;;;;;9.30;5.70;;;7.80;99.90;;;;;;15288026;23;19924;-81
2023/11/20 20:09:35;;;;;;;10.65;6.25;;;7.70;99.90;;;;;;15300826;23;20021;-81
2023/11/20 20:15:38;;;;;;;12.85;6.90;;;7.70;99.90;;;;;;15298498;23;20005;-81
2023/11/20 20:21:40;;;;;;;12.35;7.25;;;7.60;99.90;;;;;;15290913;23;20032;-80
2023/11/20 20:27:43;;;;;;;15.48;7.00;;;7.60;99.90;;;;;;15292184;23;20040;-82
2023/11/20 20:33:46;;;;;;;14.70;7.10;;;7.50;99.90;;;;;;15293779;23;20383;-79
2023/11/20 20:39:48;;;;;;;16.42;7.95;;;7.40;99.90;;;;;;15276428;23;20022;-81
2023/11/20 20:45:50;;;;;;;12.45;7.47;;;7.40;99.90;;;;;;15270373;23;20029;-81
2023/11/20 20:51:52;;;;;;;14.00;8.25;;;7.30;99.90;;;;;;15264145;23;20029;-81
2023/11/20 20:57:54;;;;;;;15.50;8.70;;;7.30;99.90;;;;;;15284639;23;20014;-82
2023/11/20 21:03:56;;;;;;;15.00;8.77;;;7.30;99.90;;;;;;15285562;23;20029;-81
2023/11/20 21:10:01;;;;;;;16.90;9.02;;;7.20;99.90;;;;;;15301223;23;20025;-81
2023/11/20 21:16:03;;;;;;;20.77;9.95;;;7.30;99.90;;;;;;15282312;23;20018;-81
2023/11/20 21:22:05;;;;;;;19.23;9.40;;;7.30;99.90;;;;;;15276735;23;20037;-81
2023/11/20 21:28:09;;;;;;;19.63;9.73;;;7.20;99.90;;;;;;15273073;23;20021;-81
2023/11/20 21:34:11;;;;;;;15.68;9.85;;;7.20;99.90;;;;;;15280462;23;20033;-81
2023/11/20 21:40:14;;;;;;;19.15;10.35;;;7.30;99.90;;;;;;15279854;23;20036;-80
2023/11/20 21:46:17;;;;;;;18.70;9.93;;;7.20;99.90;;;;;;15278960;23;20029;-80
2023/11/20 21:52:19;;;;;;;13.02;9.00;;;7.20;99.90;;;;;;15281101;23;20032;-81
2023/11/20 21:58:22;;;;;;;14.35;9.27;;;7.30;99.90;;;;;;15278920;23;20116;-81
2023/11/20 22:04:24;;;;;;;15.40;9.23;;;7.30;99.90;;;;;;15279173;23;20027;-81
2023/11/20 22:10:26;;;;;;;20.27;11.15;;;7.40;99.90;;;;;;15271310;23;20030;-81
2023/11/20 22:16:28;;;;;;;19.05;9.60;;;7.20;99.90;;;;;;15265605;23;20328;-80
2023/11/20 22:22:32;;;;;;;15.55;9.52;;;7.20;99.90;;;;;;15266242;23;20053;-80
2023/11/20 22:28:34;;;;;;;18.15;9.90;;;7.10;99.90;;;;;;15257505;23;20029;-81
2023/11/20 22:34:37;;;;;;;19.63;11.40;;;7.00;99.90;;;;;;15259210;23;20022;-80
2023/11/20 22:40:40;;;;;;;20.23;11.60;;;7.00;99.90;;;;;;15267543;22;20025;-81
2023/11/20 22:46:42;;;;;;;20.33;12.45;;;7.00;99.90;;;;;;15269716;23;20052;-79
2023/11/20 22:52:44;;;;;;;20.58;12.40;;;7.00;99.90;;;;;;15270275;23;20026;-81
2023/11/20 22:58:47;;;;;;;22.85;13.38;;;7.10;99.90;;;;;;15275467;23;20093;-81
2023/11/20 23:04:49;;;;;;;22.15;13.00;;;7.10;99.90;;;;;;15289373;23;20342;-81
2023/11/20 23:10:52;;;;;;;22.38;13.18;;;7.20;99.90;;;;;;15294754;23;20025;-81
2023/11/20 23:16:54;;;;;;;22.75;13.85;;;7.20;99.90;;;;;;15268721;23;20022;-81
2023/11/20 23:22:57;;;;;;;26.08;15.02;;;7.30;99.90;;;;;;15260535;22;20018;-81
2023/11/20 23:28:59;;;;;;;25.13;15.02;;;7.30;99.90;;;;;;15260525;23;20032;-81
2023/11/20 23:35:02;;;;;;;24.55;16.48;;;7.30;99.90;;;;;;15265293;23;20088;-82
2023/11/20 23:41:04;;;;;;;31.23;17.52;;;7.30;99.90;;;;;;15266426;23;20033;-80
2023/11/20 23:47:10;;;;;;;33.17;16.60;;;7.30;99.90;;;;;;15265586;23;20026;-80
2023/11/20 23:53:15;;;;;;;27.58;16.48;;;7.50;99.90;;;;;;15274000;23;20025;-80
2023/11/20 23:59:17;;;;;;;29.25;16.10;;;7.50;99.90;;;;;;15269832;23;20056;-81
